createdAt,value
2024-03-12T00:01:41.178Z,3.60
2024-03-12T00:04:09.309Z,2.50
2024-03-12T00:06:37.178Z,2.50
2024-03-12T00:09:10.649Z,3.10
2024-03-12T00:11:37.924Z,2.40
2024-03-12T00:14:05.269Z,2.60
2024-03-12T00:16:35.114Z,2.60
2024-03-12T00:19:03.210Z,2.70
2024-03-12T00:21:30.824Z,2.27
2024-03-12T00:24:00.065Z,2.80
2024-03-12T00:26:29.409Z,2.70
2024-03-12T00:28:56.565Z,2.77
2024-03-12T00:31:23.555Z,2.60
2024-03-12T00:33:50.618Z,2.60
2024-03-12T00:36:18.115Z,2.87
2024-03-12T00:38:45.096Z,3.43
2024-03-12T00:41:11.991Z,2.83
2024-03-12T00:43:38.960Z,3.07
2024-03-12T00:46:06.308Z,2.90
2024-03-12T00:48:33.502Z,2.60
2024-03-12T00:51:00.705Z,2.63
2024-03-12T00:53:27.642Z,2.57
2024-03-12T00:55:54.742Z,2.80
2024-03-12T00:58:22.296Z,2.60
2024-03-12T01:00:50.749Z,2.47
2024-03-12T01:03:18.579Z,2.77
2024-03-12T01:05:45.725Z,3.10
2024-03-12T01:08:13.636Z,2.87
2024-03-12T01:10:41.003Z,2.77
2024-03-12T01:13:11.392Z,2.97
2024-03-12T01:15:39.799Z,2.70
2024-03-12T01:18:06.874Z,2.70
2024-03-12T01:20:36.772Z,2.50
2024-03-12T01:23:07.035Z,2.50
2024-03-12T01:25:36.978Z,2.50
2024-03-12T01:28:07.253Z,2.50
2024-03-12T01:30:35.626Z,2.50
2024-03-12T01:33:03.492Z,2.33
2024-03-12T01:35:31.663Z,3.00
2024-03-12T01:37:59.101Z,2.93
2024-03-12T01:40:31.729Z,2.73
2024-03-12T01:43:05.345Z,3.00
2024-03-12T01:45:34.671Z,2.83
2024-03-12T01:48:09.522Z,2.10
2024-03-12T01:50:38.259Z,2.37
2024-03-12T01:53:09.249Z,2.37
2024-03-12T01:55:44.987Z,2.00
2024-03-12T01:58:16.062Z,2.47
2024-03-12T02:00:45.058Z,2.07
2024-03-12T02:03:11.950Z,2.00
2024-03-12T02:05:38.914Z,2.17
2024-03-12T02:08:06.212Z,2.17
2024-03-12T02:10:33.176Z,2.40
2024-03-12T02:13:00.130Z,2.10
2024-03-12T02:15:27.295Z,1.70
2024-03-12T02:17:54.505Z,1.93
2024-03-12T02:20:23.219Z,2.03
2024-03-12T02:22:55.413Z,1.90
2024-03-12T02:25:23.217Z,1.83
2024-03-12T02:27:51.809Z,2.00
2024-03-12T02:30:19.325Z,2.10
2024-03-12T02:32:49.701Z,2.20
2024-03-12T02:35:17.594Z,2.33
2024-03-12T02:37:45.137Z,2.60
2024-03-12T02:40:16.878Z,2.80
2024-03-12T02:42:45.506Z,2.90
2024-03-12T02:45:17.663Z,2.97
2024-03-12T02:47:47.046Z,3.07
2024-03-12T02:50:15.006Z,3.40
2024-03-12T02:52:43.596Z,3.60
2024-03-12T02:55:11.203Z,3.80
2024-03-12T02:57:38.527Z,3.47
2024-03-12T03:00:16.240Z,3.80
2024-03-12T03:02:44.824Z,4.43
2024-03-12T03:05:12.705Z,3.90
2024-03-12T03:07:43.846Z,4.10
2024-03-12T03:10:12.471Z,3.97
2024-03-12T03:12:40.881Z,3.97
2024-03-12T03:15:10.479Z,4.00
2024-03-12T03:17:37.405Z,4.20
2024-03-12T03:20:06.290Z,4.23
2024-03-12T03:22:33.504Z,3.97
2024-03-12T03:25:00.437Z,4.47
2024-03-12T03:27:27.470Z,4.40
2024-03-12T03:29:58.025Z,4.20
2024-03-12T03:32:25.526Z,4.47
2024-03-12T03:34:52.561Z,4.40
2024-03-12T03:37:21.812Z,4.30
2024-03-12T03:39:48.965Z,4.53
2024-03-12T03:42:16.673Z,4.50
2024-03-12T03:44:43.798Z,4.63
2024-03-12T03:47:10.683Z,4.50
2024-03-12T03:49:37.632Z,4.50
2024-03-12T03:52:04.810Z,4.47
2024-03-12T03:54:32.218Z,4.27
2024-03-12T03:56:59.120Z,4.30
2024-03-12T03:59:26.852Z,4.40
2024-03-12T04:01:53.850Z,4.23
2024-03-12T04:04:20.802Z,4.10
2024-03-12T04:06:51.084Z,4.07
2024-03-12T04:09:21.418Z,4.13
2024-03-12T04:11:50.982Z,4.00
2024-03-12T04:14:19.320Z,3.90
2024-03-12T04:16:46.780Z,4.07
2024-03-12T04:19:14.620Z,3.63
2024-03-12T04:21:42.109Z,4.00
2024-03-12T04:24:11.850Z,3.50
2024-03-12T04:26:38.997Z,4.10
2024-03-12T04:29:05.852Z,3.50
2024-03-12T04:31:34.050Z,4.00
2024-03-12T04:34:01.076Z,3.73
2024-03-12T04:36:27.964Z,3.17
2024-03-12T04:38:54.998Z,3.70
2024-03-12T04:41:22.146Z,3.50
2024-03-12T04:43:49.656Z,3.20
2024-03-12T04:46:16.564Z,3.50
2024-03-12T04:48:44.365Z,3.10
2024-03-12T04:51:12.220Z,3.00
2024-03-12T04:53:39.197Z,3.40
2024-03-12T04:56:09.310Z,3.53
2024-03-12T04:58:37.102Z,3.40
2024-03-12T05:01:06.931Z,3.07
2024-03-12T05:03:34.241Z,3.27
2024-03-12T05:06:01.477Z,3.00
2024-03-12T05:08:29.073Z,3.57
2024-03-12T05:10:57.510Z,3.10
2024-03-12T05:13:25.076Z,4.20
2024-03-12T05:15:52.062Z,2.70
2024-03-12T05:18:18.920Z,3.03
2024-03-12T05:20:45.935Z,3.40
2024-03-12T05:23:13.379Z,3.33
2024-03-12T05:25:41.265Z,3.40
2024-03-12T05:28:10.298Z,3.63
2024-03-12T05:30:38.575Z,3.60
2024-03-12T05:33:10.828Z,3.00
2024-03-12T05:35:40.393Z,3.10
2024-03-12T05:38:13.312Z,3.00
2024-03-12T05:41:15.957Z,2.90
2024-03-12T05:44:01.258Z,3.23
2024-03-12T05:46:47.828Z,2.73
2024-03-12T05:49:20.759Z,3.30
2024-03-12T05:51:47.808Z,3.23
2024-03-12T05:54:15.035Z,3.30
2024-03-12T05:56:42.209Z,3.07
2024-03-12T05:59:27.437Z,2.93
2024-03-12T06:01:55.985Z,3.67
2024-03-12T06:04:24.646Z,2.97
2024-03-12T06:06:52.017Z,3.03
2024-03-12T06:09:26.374Z,3.30
2024-03-12T06:11:53.385Z,3.20
2024-03-12T06:14:20.301Z,3.10
2024-03-12T06:16:54.248Z,3.20
2024-03-12T06:19:21.462Z,2.67
2024-03-12T06:21:48.484Z,3.43
2024-03-12T06:24:15.601Z,3.43
2024-03-12T06:26:43.562Z,3.10
2024-03-12T06:29:11.154Z,3.10
2024-03-12T06:31:38.538Z,3.23
2024-03-12T06:34:05.662Z,3.43
2024-03-12T06:36:33.736Z,3.23
2024-03-12T06:39:01.761Z,3.73
2024-03-12T06:41:28.670Z,3.43
2024-03-12T06:43:55.588Z,3.13
2024-03-12T06:46:22.526Z,2.90
2024-03-12T06:48:50.029Z,4.07
2024-03-12T06:51:17.110Z,3.53
2024-03-12T06:53:45.346Z,3.30
2024-03-12T06:56:12.821Z,3.50
2024-03-12T06:58:46.377Z,3.30
2024-03-12T07:01:15.020Z,2.93
2024-03-12T07:03:44.316Z,2.87
2024-03-12T07:06:12.552Z,2.80
2024-03-12T07:08:40.336Z,3.00
2024-03-12T07:11:08.737Z,3.33
2024-03-12T07:13:40.884Z,3.07
2024-03-12T07:16:09.218Z,4.20
2024-03-12T07:18:36.822Z,3.20
2024-03-12T07:21:04.114Z,3.30
2024-03-12T07:23:31.001Z,3.83
2024-03-12T07:25:59.821Z,4.00
2024-03-12T07:28:28.415Z,3.00
2024-03-12T07:30:55.783Z,2.80
2024-03-12T07:33:22.932Z,2.93
2024-03-12T07:35:50.160Z,3.77
2024-03-12T07:38:17.695Z,4.80
2024-03-12T07:40:44.973Z,3.00
2024-03-12T07:43:12.679Z,4.23
2024-03-12T07:45:47.542Z,3.87
2024-03-12T07:48:15.656Z,3.07
2024-03-12T07:50:44.679Z,2.67
2024-03-12T07:53:12.011Z,3.57
2024-03-12T07:55:39.812Z,2.60
2024-03-12T07:58:06.801Z,2.20
2024-03-12T08:00:34.150Z,3.20
2024-03-12T08:03:01.391Z,2.30
2024-03-12T08:05:32.148Z,2.90
2024-03-12T08:08:01.054Z,2.40
2024-03-12T08:10:28.016Z,2.90
2024-03-12T08:12:54.920Z,2.77
2024-03-12T08:15:22.675Z,2.87
2024-03-12T08:17:49.692Z,3.93
2024-03-12T08:20:18.844Z,4.07
2024-03-12T08:22:48.666Z,2.50
2024-03-12T08:25:21.375Z,2.70
2024-03-12T08:27:49.903Z,2.50
2024-03-12T08:30:17.517Z,2.90
2024-03-12T08:32:44.681Z,2.53
2024-03-12T08:35:14.779Z,3.70
2024-03-12T08:37:41.661Z,2.53
2024-03-12T08:40:09.410Z,3.20
2024-03-12T08:42:44.701Z,3.30
2024-03-12T08:45:20.577Z,2.77
2024-03-12T08:47:49.586Z,2.77
2024-03-12T08:50:18.318Z,3.40
2024-03-12T08:52:45.678Z,2.60
2024-03-12T08:55:12.736Z,3.23
2024-03-12T08:57:39.766Z,3.33
2024-03-12T09:00:12.373Z,2.73
2024-03-12T09:02:40.781Z,2.60
2024-03-12T09:05:08.973Z,3.77
2024-03-12T09:07:39.458Z,7.47
2024-03-12T09:10:12.662Z,3.47
2024-03-12T09:12:42.155Z,2.50
2024-03-12T09:15:10.636Z,2.60
2024-03-12T09:17:39.102Z,3.10
2024-03-12T09:20:06.639Z,2.63
2024-03-12T09:22:33.772Z,2.97
2024-03-12T09:25:00.632Z,2.53
2024-03-12T09:27:27.612Z,3.33
2024-03-12T09:29:54.524Z,2.83
2024-03-12T09:32:22.883Z,2.43
2024-03-12T09:34:50.229Z,2.60
2024-03-12T09:37:17.218Z,2.20
2024-03-12T09:39:45.584Z,2.27
2024-03-12T09:42:17.538Z,2.27
2024-03-12T09:44:44.828Z,3.20
2024-03-12T09:47:12.796Z,2.27
2024-03-12T09:49:41.533Z,2.40
2024-03-12T09:52:08.706Z,3.20
2024-03-12T09:54:36.670Z,2.73
2024-03-12T09:57:04.547Z,2.63
2024-03-12T09:59:33.781Z,2.60
2024-03-12T10:02:06.944Z,2.90
2024-03-12T10:04:34.861Z,1.83
2024-03-12T10:07:01.997Z,2.30
2024-03-12T10:09:30.599Z,2.73
2024-03-12T10:12:02.902Z,2.20
2024-03-12T10:14:31.097Z,2.60
2024-03-12T10:17:18.022Z,3.30
2024-03-12T10:19:51.726Z,3.00
2024-03-12T10:22:23.500Z,2.90
2024-03-12T10:24:51.111Z,2.50
2024-03-12T10:27:18.109Z,3.47
2024-03-12T10:29:45.442Z,2.87
2024-03-12T10:32:23.308Z,4.03
2024-03-12T10:34:50.710Z,2.40
2024-03-12T10:37:35.464Z,2.63
2024-03-12T10:40:20.318Z,2.57
2024-03-12T10:43:02.971Z,2.50
2024-03-12T10:45:30.605Z,2.63
2024-03-12T10:47:59.607Z,3.43
2024-03-12T10:50:27.243Z,2.67
2024-03-12T10:52:56.144Z,2.20
2024-03-12T10:55:23.609Z,2.50
2024-03-12T10:57:56.067Z,2.50
2024-03-12T11:00:27.435Z,2.50
2024-03-12T11:02:55.181Z,2.23
2024-03-12T11:05:27.691Z,2.60
2024-03-12T11:07:59.462Z,2.10
2024-03-12T11:10:29.275Z,2.17
2024-03-12T11:13:00.947Z,1.90
2024-03-12T11:15:28.198Z,2.23
2024-03-12T11:17:55.400Z,2.30
2024-03-12T11:20:28.134Z,1.97
2024-03-12T11:23:01.351Z,2.47
2024-03-12T11:25:51.245Z,2.37
2024-03-12T11:28:26.531Z,2.00
2024-03-12T11:30:59.162Z,2.70
2024-03-12T11:33:53.462Z,2.47
2024-03-12T11:36:35.565Z,2.67
2024-03-12T11:39:15.908Z,2.30
2024-03-12T11:42:09.419Z,2.27
2024-03-12T11:44:56.802Z,2.73
2024-03-12T11:47:38.399Z,2.60
2024-03-12T11:50:26.329Z,2.30
2024-03-12T11:52:53.366Z,2.27
2024-03-12T11:56:21.512Z,2.30
2024-03-12T11:58:59.284Z,4.67
2024-03-12T12:01:34.213Z,2.87
2024-03-12T12:04:08.542Z,2.80
2024-03-12T12:06:35.866Z,2.63
2024-03-12T12:09:09.961Z,2.50
2024-03-12T12:11:39.123Z,2.53
2024-03-12T12:14:07.369Z,2.50
2024-03-12T12:16:34.813Z,2.60
2024-03-12T12:19:09.410Z,2.97
2024-03-12T12:21:37.924Z,2.90
2024-03-12T12:24:08.693Z,2.70
2024-03-12T12:26:37.389Z,2.97
2024-03-12T12:29:05.758Z,2.53
2024-03-12T12:31:37.197Z,3.30
2024-03-12T12:34:06.907Z,4.13
2024-03-12T12:36:37.193Z,2.90
2024-03-12T12:39:06.147Z,3.43
2024-03-12T12:41:36.328Z,2.83
2024-03-12T12:44:23.299Z,3.73
2024-03-12T12:46:54.005Z,2.90
2024-03-12T12:49:22.568Z,3.90
2024-03-12T12:51:51.388Z,4.30
2024-03-12T12:54:23.031Z,5.47
2024-03-12T12:56:51.707Z,3.80
2024-03-12T12:59:24.656Z,4.40
2024-03-12T13:01:52.019Z,3.87
2024-03-12T13:04:27.912Z,4.10
2024-03-12T13:06:57.302Z,3.80
2024-03-12T13:09:37.004Z,4.10
2024-03-12T13:12:09.432Z,4.17
2024-03-12T13:14:39.544Z,3.70
2024-03-12T13:17:10.005Z,4.37
2024-03-12T13:19:37.478Z,4.80
2024-03-12T13:22:10.605Z,4.63
2024-03-12T13:24:45.043Z,4.40
2024-03-12T13:27:12.706Z,3.90
2024-03-12T13:29:39.633Z,3.70
2024-03-12T13:32:06.891Z,3.97
2024-03-12T13:34:33.915Z,3.43
2024-03-12T13:37:01.931Z,4.23
2024-03-12T13:39:30.550Z,4.17
2024-03-12T13:41:57.494Z,4.50
2024-03-12T13:44:24.416Z,3.77
2024-03-12T13:46:51.344Z,3.77
2024-03-12T13:49:19.209Z,3.90
2024-03-12T13:51:47.829Z,4.03
2024-03-12T13:54:16.076Z,4.63
2024-03-12T13:56:43.555Z,4.13
2024-03-12T13:59:13.775Z,4.47
2024-03-12T14:01:41.985Z,3.40
2024-03-12T14:04:12.793Z,3.73
2024-03-12T14:06:40.408Z,3.47
2024-03-12T14:09:12.821Z,3.70
2024-03-12T14:11:40.127Z,3.70
2024-03-12T14:14:09.593Z,4.47
2024-03-12T14:16:36.844Z,3.47
2024-03-12T14:19:04.557Z,3.47
2024-03-12T14:21:34.109Z,3.57
2024-03-12T14:24:02.828Z,3.10
2024-03-12T14:26:30.354Z,3.00
2024-03-12T14:28:57.304Z,3.40
2024-03-12T14:31:24.245Z,3.53
2024-03-12T14:33:51.240Z,3.47
2024-03-12T14:36:18.309Z,3.30
2024-03-12T14:38:45.248Z,3.23
2024-03-12T14:41:12.240Z,3.10
2024-03-12T14:43:39.670Z,3.70
2024-03-12T14:46:06.713Z,3.77
2024-03-12T14:48:35.232Z,4.00
2024-03-12T14:51:02.399Z,5.20
2024-03-12T14:53:29.338Z,5.37
2024-03-12T14:55:57.635Z,4.50
2024-03-12T14:58:24.734Z,4.07
2024-03-12T15:00:51.724Z,3.97
2024-03-12T15:03:20.456Z,3.70
2024-03-12T15:05:54.926Z,4.47
2024-03-12T15:08:22.409Z,3.80
2024-03-12T15:10:49.364Z,3.40
2024-03-12T15:13:16.380Z,3.93
2024-03-12T15:15:43.570Z,4.37
2024-03-12T15:18:14.370Z,5.73
2024-03-12T15:20:42.781Z,12.53
2024-03-12T15:23:09.685Z,13.90
2024-03-12T15:25:36.696Z,12.63
2024-03-12T15:28:03.752Z,10.33
2024-03-12T15:30:32.021Z,8.30
2024-03-12T15:32:59.088Z,6.30
2024-03-12T15:35:26.343Z,15.93
2024-03-12T15:37:54.205Z,24.97
2024-03-12T15:40:21.489Z,6.60
2024-03-12T15:42:49.443Z,11.13
2024-03-12T15:45:17.206Z,12.07
2024-03-12T15:47:45.128Z,13.37
2024-03-12T15:50:13.580Z,4.77
2024-03-12T15:52:40.721Z,4.47
2024-03-12T15:55:09.564Z,3.50
2024-03-12T15:57:40.004Z,3.70
2024-03-12T16:00:09.726Z,3.80
2024-03-12T16:02:36.850Z,4.50
2024-03-12T16:05:06.490Z,4.40
2024-03-12T16:07:37.014Z,5.60
2024-03-12T16:10:05.701Z,7.30
2024-03-12T16:12:32.914Z,4.87
2024-03-12T16:14:59.869Z,6.03
2024-03-12T16:17:31.033Z,7.20
2024-03-12T16:19:58.144Z,6.00
2024-03-12T16:22:25.125Z,5.10
2024-03-12T16:24:52.187Z,4.70
2024-03-12T16:27:19.390Z,5.07
2024-03-12T16:29:48.351Z,8.77
2024-03-12T16:32:15.718Z,16.90
2024-03-12T16:34:43.154Z,23.37
2024-03-12T16:37:10.686Z,15.23
2024-03-12T16:39:39.981Z,9.47
2024-03-12T16:42:07.382Z,12.13
2024-03-12T16:44:34.278Z,16.60
2024-03-12T16:47:06.026Z,19.83
2024-03-12T16:49:34.358Z,22.60
2024-03-12T16:52:02.483Z,16.77
2024-03-12T16:54:32.047Z,16.10
2024-03-12T16:57:00.341Z,18.70
2024-03-12T16:59:27.496Z,18.80
2024-03-12T17:01:55.051Z,29.20
2024-03-12T17:04:22.705Z,21.83
2024-03-12T17:06:57.782Z,21.87
2024-03-12T17:09:27.581Z,17.33
2024-03-12T17:11:54.754Z,17.67
2024-03-12T17:14:27.827Z,10.30
2024-03-12T17:17:06.648Z,14.53
2024-03-12T17:19:41.548Z,14.43
2024-03-12T17:22:11.537Z,13.83
2024-03-12T17:24:40.205Z,7.23
2024-03-12T17:27:11.570Z,6.50
2024-03-12T17:29:38.864Z,5.67
2024-03-12T17:32:06.316Z,13.80
2024-03-12T17:34:34.096Z,19.20
2024-03-12T17:37:05.157Z,8.90
2024-03-12T17:39:35.515Z,16.10
2024-03-12T17:42:02.787Z,12.03
2024-03-12T17:44:30.037Z,15.83
2024-03-12T17:47:00.930Z,16.57
2024-03-12T17:49:43.203Z,15.33
2024-03-12T17:52:11.953Z,15.07
2024-03-12T17:54:39.911Z,11.43
2024-03-12T17:57:11.989Z,11.67
2024-03-12T17:59:40.754Z,9.83
2024-03-12T18:02:13.520Z,5.33
2024-03-12T18:04:41.990Z,4.50
2024-03-12T18:07:21.479Z,4.27
2024-03-12T18:09:53.630Z,4.73
2024-03-12T18:12:22.576Z,4.07
2024-03-12T18:14:50.043Z,5.40
2024-03-12T18:17:21.400Z,4.70
2024-03-12T18:19:48.297Z,6.00
2024-03-12T18:22:16.145Z,9.40
2024-03-12T18:24:43.220Z,7.80
2024-03-12T18:27:10.347Z,7.87
2024-03-12T18:29:41.069Z,6.23
2024-03-12T18:32:09.109Z,6.03
2024-03-12T18:34:36.852Z,6.65
2024-03-12T18:37:06.289Z,5.80
2024-03-12T18:39:33.380Z,5.63
2024-03-12T18:42:00.582Z,6.07
2024-03-12T18:44:27.858Z,5.67
2024-03-12T18:46:55.629Z,5.97
2024-03-12T18:49:23.001Z,7.00
2024-03-12T18:51:52.174Z,6.80
2024-03-12T18:54:19.413Z,6.57
2024-03-12T18:56:49.033Z,6.50
2024-03-12T18:59:16.513Z,6.90
2024-03-12T19:01:45.381Z,7.17
2024-03-12T19:04:12.573Z,6.80
2024-03-12T19:06:41.247Z,8.23
2024-03-12T19:09:10.005Z,8.37
2024-03-12T19:11:37.439Z,6.17
2024-03-12T19:14:04.856Z,5.40
2024-03-12T19:16:34.889Z,6.17
2024-03-12T19:19:05.984Z,11.47
2024-03-12T19:21:33.324Z,17.60
2024-03-12T19:24:02.162Z,39.00
2024-03-12T19:26:29.405Z,40.90
2024-03-12T19:28:57.674Z,43.07
2024-03-12T19:31:25.485Z,42.53
2024-03-12T19:33:52.782Z,43.47
2024-03-12T19:36:23.504Z,45.63
2024-03-12T19:38:50.673Z,44.57
2024-03-12T19:41:18.707Z,40.90
2024-03-12T19:43:45.865Z,36.17
2024-03-12T19:46:16.110Z,29.57
2024-03-12T19:48:44.356Z,33.17
2024-03-12T19:51:12.989Z,31.43
2024-03-12T19:53:40.643Z,24.50
2024-03-12T19:56:13.168Z,23.57
2024-03-12T19:58:40.594Z,18.60
2024-03-12T20:01:08.297Z,14.50
2024-03-12T20:03:35.465Z,8.97
2024-03-12T20:06:02.512Z,10.40
2024-03-12T20:08:29.450Z,7.60
2024-03-12T20:10:59.243Z,9.47
2024-03-12T20:13:26.212Z,8.17
2024-03-12T20:15:53.328Z,7.03
2024-03-12T20:18:20.372Z,7.63
2024-03-12T20:20:47.302Z,9.03
2024-03-12T20:23:14.216Z,6.80
2024-03-12T20:25:41.580Z,7.17
2024-03-12T20:28:11.204Z,6.67
2024-03-12T20:30:39.744Z,7.87
2024-03-12T20:33:09.535Z,9.87
2024-03-12T20:35:39.157Z,9.97
2024-03-12T20:38:10.269Z,7.17
2024-03-12T20:40:37.740Z,6.43
2024-03-12T20:43:07.167Z,9.23
2024-03-12T20:45:35.809Z,8.40
2024-03-12T20:48:04.252Z,6.63
2024-03-12T20:50:31.333Z,8.33
2024-03-12T20:52:58.724Z,8.83
2024-03-12T20:55:25.862Z,8.57
2024-03-12T20:57:53.333Z,8.37
2024-03-12T21:00:33.363Z,9.37
2024-03-12T21:03:00.490Z,7.60
2024-03-12T21:05:32.033Z,8.63
2024-03-12T21:07:59.662Z,8.00
2024-03-12T21:10:26.585Z,9.03
2024-03-12T21:12:53.799Z,7.83
2024-03-12T21:15:23.427Z,9.53
2024-03-12T21:17:51.009Z,10.30
2024-03-12T21:20:29.392Z,12.40
2024-03-12T21:22:56.479Z,12.47
2024-03-12T21:25:23.520Z,12.33
2024-03-12T21:27:50.631Z,16.93
2024-03-12T21:30:20.214Z,15.83
2024-03-12T21:32:48.900Z,17.47
2024-03-12T21:35:16.971Z,15.83
2024-03-12T21:37:44.128Z,15.37
2024-03-12T21:40:14.537Z,11.37
2024-03-12T21:42:44.716Z,8.73
2024-03-12T21:45:12.778Z,6.57
2024-03-12T21:47:41.592Z,7.23
2024-03-12T21:50:15.666Z,7.40
2024-03-12T21:52:43.465Z,6.67
2024-03-12T21:55:11.905Z,7.47
2024-03-12T21:57:40.130Z,7.57
2024-03-12T22:00:20.640Z,5.83
2024-03-12T22:02:48.890Z,6.93
2024-03-12T22:05:17.304Z,6.27
2024-03-12T22:07:45.364Z,6.37
2024-03-12T22:10:13.643Z,7.50
2024-03-12T22:12:41.807Z,7.27
2024-03-12T22:15:12.632Z,7.97
2024-03-12T22:17:40.230Z,8.80
2024-03-12T22:20:07.398Z,7.80
2024-03-12T22:22:34.461Z,7.43
2024-03-12T22:25:01.482Z,7.13
2024-03-12T22:27:29.690Z,7.90
2024-03-12T22:29:56.827Z,8.83
2024-03-12T22:32:27.564Z,8.53
2024-03-12T22:34:55.717Z,9.33
2024-03-12T22:37:22.905Z,7.70
2024-03-12T22:39:50.213Z,7.90
2024-03-12T22:42:19.095Z,6.00
2024-03-12T22:44:46.190Z,6.33
2024-03-12T22:47:13.430Z,6.40
2024-03-12T22:49:44.407Z,7.40
2024-03-12T22:52:12.831Z,6.87
2024-03-12T22:54:41.450Z,5.77
2024-03-12T22:57:09.844Z,6.07
2024-03-12T22:59:37.038Z,7.30
2024-03-12T23:02:04.356Z,5.77
2024-03-12T23:04:31.705Z,5.60
2024-03-12T23:06:58.913Z,7.13
2024-03-12T23:09:27.445Z,6.17
2024-03-12T23:11:57.453Z,5.97
2024-03-12T23:14:25.260Z,5.37
2024-03-12T23:16:52.600Z,5.17
2024-03-12T23:19:19.807Z,6.60
2024-03-12T23:21:47.360Z,5.60
2024-03-12T23:24:14.952Z,5.37
2024-03-12T23:26:43.610Z,4.73
2024-03-12T23:29:13.193Z,4.40
2024-03-12T23:31:40.192Z,4.20
2024-03-12T23:34:07.541Z,4.57
2024-03-12T23:36:34.790Z,4.67
2024-03-12T23:39:01.797Z,4.97
2024-03-12T23:41:31.089Z,5.00
2024-03-12T23:43:58.501Z,4.93
2024-03-12T23:46:25.930Z,4.97
2024-03-12T23:48:53.142Z,4.63
2024-03-12T23:51:20.056Z,4.47
2024-03-12T23:53:47.325Z,4.40
2024-03-12T23:56:14.272Z,4.23
2024-03-12T23:58:41.179Z,4.83
